sensor_id;sensor_type;location;lat;lon;timestamp;P1;durP1;ratioP1;P2;durP2;ratioP2
18780;SDS011;9519;51.890;8.970;2022-11-23T00:00:11;6.70;;;2.60;;
18780;SDS011;9519;51.890;8.970;2022-11-23T00:05:14;5.47;;;3.13;;
18780;SDS011;9519;51.890;8.970;2022-11-23T00:10:16;5.10;;;3.20;;
18780;SDS011;9519;51.890;8.970;2022-11-23T00:15:20;6.43;;;3.50;;
18780;SDS011;9519;51.890;8.970;2022-11-23T00:20:22;6.87;;;3.33;;
18780;SDS011;9519;51.890;8.970;2022-11-23T00:25:24;6.53;;;3.30;;
18780;SDS011;9519;51.890;8.970;2022-11-23T00:30:28;6.07;;;3.77;;
18780;SDS011;9519;51.890;8.970;2022-11-23T00:35:30;6.40;;;3.07;;
18780;SDS011;9519;51.890;8.970;2022-11-23T00:40:32;7.00;;;3.40;;
18780;SDS011;9519;51.890;8.970;2022-11-23T00:45:35;4.60;;;3.00;;
18780;SDS011;9519;51.890;8.970;2022-11-23T00:50:37;6.97;;;3.60;;
18780;SDS011;9519;51.890;8.970;2022-11-23T00:55:39;9.57;;;5.03;;
18780;SDS011;9519;51.890;8.970;2022-11-23T01:00:43;9.97;;;5.77;;
18780;SDS011;9519;51.890;8.970;2022-11-23T01:05:45;9.37;;;5.60;;
18780;SDS011;9519;51.890;8.970;2022-11-23T01:10:47;6.80;;;4.40;;
18780;SDS011;9519;51.890;8.970;2022-11-23T01:15:50;8.77;;;4.20;;
18780;SDS011;9519;51.890;8.970;2022-11-23T01:20:52;7.37;;;3.50;;
18780;SDS011;9519;51.890;8.970;2022-11-23T01:25:54;8.33;;;3.77;;
18780;SDS011;9519;51.890;8.970;2022-11-23T01:31:02;7.97;;;3.90;;
18780;SDS011;9519;51.890;8.970;2022-11-23T01:36:07;6.90;;;3.23;;
18780;SDS011;9519;51.890;8.970;2022-11-23T01:41:12;6.97;;;3.00;;
18780;SDS011;9519;51.890;8.970;2022-11-23T01:46:17;9.60;;;2.87;;
18780;SDS011;9519;51.890;8.970;2022-11-23T01:51:21;8.23;;;3.00;;
18780;SDS011;9519;51.890;8.970;2022-11-23T01:56:29;7.23;;;3.07;;
18780;SDS011;9519;51.890;8.970;2022-11-23T02:01:38;7.10;;;3.37;;
18780;SDS011;9519;51.890;8.970;2022-11-23T02:06:40;9.50;;;3.20;;
18780;SDS011;9519;51.890;8.970;2022-11-23T02:11:46;5.90;;;2.93;;
18780;SDS011;9519;51.890;8.970;2022-11-23T02:16:50;9.70;;;3.93;;
18780;SDS011;9519;51.890;8.970;2022-11-23T02:21:52;9.07;;;3.53;;
18780;SDS011;9519;51.890;8.970;2022-11-23T02:26:57;11.20;;;4.47;;
18780;SDS011;9519;51.890;8.970;2022-11-23T02:31:59;11.33;;;3.80;;
18780;SDS011;9519;51.890;8.970;2022-11-23T02:37:01;8.20;;;4.33;;
18780;SDS011;9519;51.890;8.970;2022-11-23T02:42:06;8.83;;;4.23;;
18780;SDS011;9519;51.890;8.970;2022-11-23T02:47:09;16.17;;;4.90;;
18780;SDS011;9519;51.890;8.970;2022-11-23T02:52:11;6.70;;;4.33;;
18780;SDS011;9519;51.890;8.970;2022-11-23T02:57:16;12.43;;;5.40;;
18780;SDS011;9519;51.890;8.970;2022-11-23T03:02:18;11.00;;;4.10;;
18780;SDS011;9519;51.890;8.970;2022-11-23T03:07:20;9.73;;;4.20;;
18780;SDS011;9519;51.890;8.970;2022-11-23T03:12:23;7.70;;;4.03;;
18780;SDS011;9519;51.890;8.970;2022-11-23T03:17:26;7.03;;;5.17;;
18780;SDS011;9519;51.890;8.970;2022-11-23T03:22:28;10.83;;;4.90;;
18780;SDS011;9519;51.890;8.970;2022-11-23T03:27:31;9.67;;;4.90;;
18780;SDS011;9519;51.890;8.970;2022-11-23T03:32:34;9.67;;;5.00;;
18780;SDS011;9519;51.890;8.970;2022-11-23T03:37:36;10.13;;;4.80;;
18780;SDS011;9519;51.890;8.970;2022-11-23T03:42:39;10.17;;;4.13;;
18780;SDS011;9519;51.890;8.970;2022-11-23T03:47:42;7.83;;;4.10;;
18780;SDS011;9519;51.890;8.970;2022-11-23T03:52:44;8.60;;;3.90;;
18780;SDS011;9519;51.890;8.970;2022-11-23T03:57:53;7.27;;;3.67;;
18780;SDS011;9519;51.890;8.970;2022-11-23T04:02:58;7.40;;;3.57;;
18780;SDS011;9519;51.890;8.970;2022-11-23T04:08:00;5.90;;;2.67;;
18780;SDS011;9519;51.890;8.970;2022-11-23T04:13:03;8.50;;;3.53;;
18780;SDS011;9519;51.890;8.970;2022-11-23T04:18:05;6.10;;;2.80;;
18780;SDS011;9519;51.890;8.970;2022-11-23T04:23:07;8.10;;;3.50;;
18780;SDS011;9519;51.890;8.970;2022-11-23T04:28:11;8.57;;;4.00;;
18780;SDS011;9519;51.890;8.970;2022-11-23T04:33:13;6.00;;;3.93;;
18780;SDS011;9519;51.890;8.970;2022-11-23T04:38:15;8.03;;;4.13;;
18780;SDS011;9519;51.890;8.970;2022-11-23T04:43:18;9.30;;;4.10;;
18780;SDS011;9519;51.890;8.970;2022-11-23T04:48:21;10.27;;;4.73;;
18780;SDS011;9519;51.890;8.970;2022-11-23T04:53:23;8.63;;;5.37;;
18780;SDS011;9519;51.890;8.970;2022-11-23T04:58:26;8.53;;;5.07;;
18780;SDS011;9519;51.890;8.970;2022-11-23T05:03:28;6.83;;;3.47;;
18780;SDS011;9519;51.890;8.970;2022-11-23T05:08:33;6.87;;;3.83;;
18780;SDS011;9519;51.890;8.970;2022-11-23T05:13:38;8.17;;;4.53;;
18780;SDS011;9519;51.890;8.970;2022-11-23T05:18:40;6.77;;;3.63;;
18780;SDS011;9519;51.890;8.970;2022-11-23T05:23:42;5.70;;;3.57;;
18780;SDS011;9519;51.890;8.970;2022-11-23T05:28:45;8.67;;;3.70;;
18780;SDS011;9519;51.890;8.970;2022-11-23T05:33:48;7.57;;;4.10;;
18780;SDS011;9519;51.890;8.970;2022-11-23T05:38:50;9.67;;;5.00;;
18780;SDS011;9519;51.890;8.970;2022-11-23T05:43:53;7.80;;;4.47;;
18780;SDS011;9519;51.890;8.970;2022-11-23T05:48:55;10.33;;;4.27;;
18780;SDS011;9519;51.890;8.970;2022-11-23T05:53:57;8.67;;;3.90;;
18780;SDS011;9519;51.890;8.970;2022-11-23T05:59:00;12.00;;;5.10;;
18780;SDS011;9519;51.890;8.970;2022-11-23T06:04:04;8.27;;;5.13;;
18780;SDS011;9519;51.890;8.970;2022-11-23T06:09:06;9.43;;;5.30;;
18780;SDS011;9519;51.890;8.970;2022-11-23T06:14:10;9.93;;;6.03;;
18780;SDS011;9519;51.890;8.970;2022-11-23T06:19:12;11.33;;;7.30;;
18780;SDS011;9519;51.890;8.970;2022-11-23T06:24:14;8.60;;;6.40;;
18780;SDS011;9519;51.890;8.970;2022-11-23T06:29:17;13.27;;;6.53;;
18780;SDS011;9519;51.890;8.970;2022-11-23T06:34:20;9.37;;;5.50;;
18780;SDS011;9519;51.890;8.970;2022-11-23T06:39:22;10.73;;;4.93;;
18780;SDS011;9519;51.890;8.970;2022-11-23T06:44:25;7.73;;;4.20;;
18780;SDS011;9519;51.890;8.970;2022-11-23T06:49:28;10.33;;;5.00;;
18780;SDS011;9519;51.890;8.970;2022-11-23T06:54:30;16.40;;;7.50;;
18780;SDS011;9519;51.890;8.970;2022-11-23T06:59:34;14.77;;;7.17;;
18780;SDS011;9519;51.890;8.970;2022-11-23T07:04:36;12.70;;;5.27;;
18780;SDS011;9519;51.890;8.970;2022-11-23T07:09:38;10.80;;;4.50;;
18780;SDS011;9519;51.890;8.970;2022-11-23T07:14:42;10.17;;;4.37;;
18780;SDS011;9519;51.890;8.970;2022-11-23T07:19:44;7.83;;;3.77;;
18780;SDS011;9519;51.890;8.970;2022-11-23T07:24:46;10.73;;;4.10;;
18780;SDS011;9519;51.890;8.970;2022-11-23T07:29:49;11.50;;;4.43;;
18780;SDS011;9519;51.890;8.970;2022-11-23T07:34:51;8.73;;;4.70;;
18780;SDS011;9519;51.890;8.970;2022-11-23T07:39:56;11.50;;;4.70;;
18780;SDS011;9519;51.890;8.970;2022-11-23T07:44:59;9.37;;;4.07;;
18780;SDS011;9519;51.890;8.970;2022-11-23T07:50:02;7.63;;;3.50;;
18780;SDS011;9519;51.890;8.970;2022-11-23T07:55:05;9.13;;;3.43;;
18780;SDS011;9519;51.890;8.970;2022-11-23T08:00:10;8.00;;;3.60;;
18780;SDS011;9519;51.890;8.970;2022-11-23T08:05:13;9.53;;;3.30;;
18780;SDS011;9519;51.890;8.970;2022-11-23T08:10:15;6.00;;;2.93;;
18780;SDS011;9519;51.890;8.970;2022-11-23T08:15:19;6.97;;;2.90;;
18780;SDS011;9519;51.890;8.970;2022-11-23T08:20:23;9.20;;;3.30;;
18780;SDS011;9519;51.890;8.970;2022-11-23T08:25:26;6.03;;;3.03;;
18780;SDS011;9519;51.890;8.970;2022-11-23T08:30:31;11.23;;;3.10;;
18780;SDS011;9519;51.890;8.970;2022-11-23T08:35:35;8.73;;;2.50;;
18780;SDS011;9519;51.890;8.970;2022-11-23T08:40:39;10.37;;;3.73;;
18780;SDS011;9519;51.890;8.970;2022-11-23T08:45:44;8.80;;;2.80;;
18780;SDS011;9519;51.890;8.970;2022-11-23T08:50:46;11.30;;;3.33;;
18780;SDS011;9519;51.890;8.970;2022-11-23T08:55:48;9.00;;;3.33;;
18780;SDS011;9519;51.890;8.970;2022-11-23T09:00:51;7.17;;;2.93;;
18780;SDS011;9519;51.890;8.970;2022-11-23T09:05:57;8.03;;;3.00;;
18780;SDS011;9519;51.890;8.970;2022-11-23T09:11:00;10.73;;;4.37;;
18780;SDS011;9519;51.890;8.970;2022-11-23T09:16:07;9.37;;;3.03;;
18780;SDS011;9519;51.890;8.970;2022-11-23T09:21:10;8.27;;;3.10;;
18780;SDS011;9519;51.890;8.970;2022-11-23T09:26:12;9.10;;;2.90;;
18780;SDS011;9519;51.890;8.970;2022-11-23T09:31:16;6.77;;;2.53;;
18780;SDS011;9519;51.890;8.970;2022-11-23T09:36:18;10.30;;;3.10;;
18780;SDS011;9519;51.890;8.970;2022-11-23T09:41:25;9.20;;;3.10;;
18780;SDS011;9519;51.890;8.970;2022-11-23T09:47:05;5.47;;;2.37;;
18780;SDS011;9519;51.890;8.970;2022-11-23T09:52:28;6.83;;;2.87;;
18780;SDS011;9519;51.890;8.970;2022-11-23T09:57:32;5.43;;;2.23;;
18780;SDS011;9519;51.890;8.970;2022-11-23T10:02:39;9.17;;;2.77;;
18780;SDS011;9519;51.890;8.970;2022-11-23T10:07:45;8.13;;;2.43;;
18780;SDS011;9519;51.890;8.970;2022-11-23T10:13:04;6.97;;;2.47;;
18780;SDS011;9519;51.890;8.970;2022-11-23T10:18:25;5.23;;;2.30;;
18780;SDS011;9519;51.890;8.970;2022-11-23T10:23:44;6.77;;;2.27;;
18780;SDS011;9519;51.890;8.970;2022-11-23T10:28:53;8.77;;;2.40;;
18780;SDS011;9519;51.890;8.970;2022-11-23T10:34:01;8.47;;;2.13;;
18780;SDS011;9519;51.890;8.970;2022-11-23T10:39:15;6.90;;;2.40;;
18780;SDS011;9519;51.890;8.970;2022-11-23T10:44:27;7.23;;;2.07;;
18780;SDS011;9519;51.890;8.970;2022-11-23T10:49:33;7.20;;;1.80;;
18780;SDS011;9519;51.890;8.970;2022-11-23T10:54:37;7.23;;;2.00;;
18780;SDS011;9519;51.890;8.970;2022-11-23T10:59:55;6.90;;;2.10;;
18780;SDS011;9519;51.890;8.970;2022-11-23T11:05:20;7.10;;;2.30;;
18780;SDS011;9519;51.890;8.970;2022-11-23T11:10:34;7.80;;;2.10;;
18780;SDS011;9519;51.890;8.970;2022-11-23T11:15:43;6.43;;;2.07;;
18780;SDS011;9519;51.890;8.970;2022-11-23T11:20:56;6.27;;;1.87;;
18780;SDS011;9519;51.890;8.970;2022-11-23T11:26:03;8.97;;;2.60;;
18780;SDS011;9519;51.890;8.970;2022-11-23T11:36:59;7.00;;;2.30;;
18780;SDS011;9519;51.890;8.970;2022-11-23T11:42:13;7.60;;;2.00;;
18780;SDS011;9519;51.890;8.970;2022-11-23T11:47:23;9.27;;;2.30;;
18780;SDS011;9519;51.890;8.970;2022-11-23T11:52:36;8.00;;;1.90;;
18780;SDS011;9519;51.890;8.970;2022-11-23T11:57:43;8.93;;;2.17;;
18780;SDS011;9519;51.890;8.970;2022-11-23T12:02:51;9.63;;;2.27;;
18780;SDS011;9519;51.890;8.970;2022-11-23T12:08:07;7.17;;;2.17;;
18780;SDS011;9519;51.890;8.970;2022-11-23T12:13:17;8.47;;;2.40;;
18780;SDS011;9519;51.890;8.970;2022-11-23T12:18:25;9.07;;;2.10;;
18780;SDS011;9519;51.890;8.970;2022-11-23T12:24:09;6.93;;;1.93;;
18780;SDS011;9519;51.890;8.970;2022-11-23T12:29:40;7.67;;;2.57;;
18780;SDS011;9519;51.890;8.970;2022-11-23T12:40:58;12.33;;;2.90;;
18780;SDS011;9519;51.890;8.970;2022-11-23T12:46:24;9.77;;;2.33;;
18780;SDS011;9519;51.890;8.970;2022-11-23T12:51:39;10.83;;;2.50;;
18780;SDS011;9519;51.890;8.970;2022-11-23T12:57:05;14.47;;;2.97;;
18780;SDS011;9519;51.890;8.970;2022-11-23T13:02:22;10.63;;;2.73;;
18780;SDS011;9519;51.890;8.970;2022-11-23T13:08:03;12.73;;;3.47;;
18780;SDS011;9519;51.890;8.970;2022-11-23T13:13:46;15.17;;;4.60;;
18780;SDS011;9519;51.890;8.970;2022-11-23T13:19:10;11.27;;;2.50;;
18780;SDS011;9519;51.890;8.970;2022-11-23T13:24:33;8.93;;;2.03;;
18780;SDS011;9519;51.890;8.970;2022-11-23T13:29:52;10.23;;;2.17;;
18780;SDS011;9519;51.890;8.970;2022-11-23T13:34:57;12.53;;;2.53;;
18780;SDS011;9519;51.890;8.970;2022-11-23T13:40:00;8.27;;;2.10;;
18780;SDS011;9519;51.890;8.970;2022-11-23T13:45:25;7.87;;;2.03;;
18780;SDS011;9519;51.890;8.970;2022-11-23T13:50:30;8.37;;;2.17;;
18780;SDS011;9519;51.890;8.970;2022-11-23T13:55:33;10.90;;;2.67;;
18780;SDS011;9519;51.890;8.970;2022-11-23T14:00:46;10.73;;;2.60;;
18780;SDS011;9519;51.890;8.970;2022-11-23T14:05:54;8.97;;;2.10;;
18780;SDS011;9519;51.890;8.970;2022-11-23T14:11:01;10.90;;;2.23;;
18780;SDS011;9519;51.890;8.970;2022-11-23T14:16:14;12.77;;;2.27;;
18780;SDS011;9519;51.890;8.970;2022-11-23T14:21:35;13.23;;;2.60;;
18780;SDS011;9519;51.890;8.970;2022-11-23T14:26:54;9.37;;;2.30;;
18780;SDS011;9519;51.890;8.970;2022-11-23T14:32:21;9.10;;;2.13;;
18780;SDS011;9519;51.890;8.970;2022-11-23T14:37:39;9.93;;;3.40;;
18780;SDS011;9519;51.890;8.970;2022-11-23T14:42:58;10.77;;;2.83;;
18780;SDS011;9519;51.890;8.970;2022-11-23T14:53:28;9.73;;;3.83;;
18780;SDS011;9519;51.890;8.970;2022-11-23T14:58:34;13.97;;;4.20;;
18780;SDS011;9519;51.890;8.970;2022-11-23T15:03:38;11.23;;;4.20;;
18780;SDS011;9519;51.890;8.970;2022-11-23T15:08:43;16.37;;;4.93;;
18780;SDS011;9519;51.890;8.970;2022-11-23T15:13:50;15.47;;;4.27;;
18780;SDS011;9519;51.890;8.970;2022-11-23T15:18:58;18.40;;;3.83;;
18780;SDS011;9519;51.890;8.970;2022-11-23T15:24:00;14.37;;;3.40;;
18780;SDS011;9519;51.890;8.970;2022-11-23T15:29:03;8.67;;;2.80;;
18780;SDS011;9519;51.890;8.970;2022-11-23T15:34:08;9.50;;;2.67;;
18780;SDS011;9519;51.890;8.970;2022-11-23T15:39:15;9.27;;;2.87;;
18780;SDS011;9519;51.890;8.970;2022-11-23T15:44:21;10.67;;;2.43;;
18780;SDS011;9519;51.890;8.970;2022-11-23T15:49:27;9.77;;;2.50;;
18780;SDS011;9519;51.890;8.970;2022-11-23T15:54:30;9.70;;;2.03;;
18780;SDS011;9519;51.890;8.970;2022-11-23T15:59:38;10.57;;;2.43;;
18780;SDS011;9519;51.890;8.970;2022-11-23T16:04:45;8.17;;;2.57;;
18780;SDS011;9519;51.890;8.970;2022-11-23T16:09:48;7.50;;;2.10;;
18780;SDS011;9519;51.890;8.970;2022-11-23T16:20:42;7.90;;;2.80;;
18780;SDS011;9519;51.890;8.970;2022-11-23T16:25:51;12.10;;;2.80;;
18780;SDS011;9519;51.890;8.970;2022-11-23T16:30:56;9.13;;;2.13;;
18780;SDS011;9519;51.890;8.970;2022-11-23T16:36:01;13.27;;;3.37;;
18780;SDS011;9519;51.890;8.970;2022-11-23T16:41:04;9.87;;;3.10;;
18780;SDS011;9519;51.890;8.970;2022-11-23T16:46:07;10.63;;;2.97;;
18780;SDS011;9519;51.890;8.970;2022-11-23T16:51:11;10.20;;;3.13;;
18780;SDS011;9519;51.890;8.970;2022-11-23T16:56:17;11.37;;;3.77;;
18780;SDS011;9519;51.890;8.970;2022-11-23T17:01:22;12.73;;;3.20;;
18780;SDS011;9519;51.890;8.970;2022-11-23T17:06:28;11.20;;;3.00;;
18780;SDS011;9519;51.890;8.970;2022-11-23T17:11:30;14.23;;;3.93;;
18780;SDS011;9519;51.890;8.970;2022-11-23T17:16:32;16.70;;;4.73;;
18780;SDS011;9519;51.890;8.970;2022-11-23T17:21:36;12.00;;;4.53;;
18780;SDS011;9519;51.890;8.970;2022-11-23T17:26:41;15.50;;;5.03;;
18780;SDS011;9519;51.890;8.970;2022-11-23T17:31:46;11.43;;;6.03;;
18780;SDS011;9519;51.890;8.970;2022-11-23T17:36:51;17.27;;;9.50;;
18780;SDS011;9519;51.890;8.970;2022-11-23T17:41:54;15.90;;;6.23;;
18780;SDS011;9519;51.890;8.970;2022-11-23T17:46:57;14.00;;;4.33;;
18780;SDS011;9519;51.890;8.970;2022-11-23T17:52:02;10.80;;;4.03;;
18780;SDS011;9519;51.890;8.970;2022-11-23T17:57:04;9.10;;;3.50;;
18780;SDS011;9519;51.890;8.970;2022-11-23T18:02:07;15.80;;;4.67;;
18780;SDS011;9519;51.890;8.970;2022-11-23T18:07:12;13.50;;;4.70;;
18780;SDS011;9519;51.890;8.970;2022-11-23T18:12:16;12.97;;;4.33;;
18780;SDS011;9519;51.890;8.970;2022-11-23T18:17:21;14.67;;;3.53;;
18780;SDS011;9519;51.890;8.970;2022-11-23T18:22:25;14.13;;;3.90;;
18780;SDS011;9519;51.890;8.970;2022-11-23T18:27:27;13.63;;;3.73;;
18780;SDS011;9519;51.890;8.970;2022-11-23T18:32:29;10.10;;;2.87;;
18780;SDS011;9519;51.890;8.970;2022-11-23T18:37:32;10.40;;;3.63;;
18780;SDS011;9519;51.890;8.970;2022-11-23T18:42:34;12.93;;;4.23;;
18780;SDS011;9519;51.890;8.970;2022-11-23T18:47:37;13.60;;;3.27;;
18780;SDS011;9519;51.890;8.970;2022-11-23T18:52:40;14.63;;;3.73;;
18780;SDS011;9519;51.890;8.970;2022-11-23T18:57:42;9.47;;;3.43;;
18780;SDS011;9519;51.890;8.970;2022-11-23T19:02:49;13.13;;;3.80;;
18780;SDS011;9519;51.890;8.970;2022-11-23T19:07:53;12.60;;;3.13;;
18780;SDS011;9519;51.890;8.970;2022-11-23T19:13:03;7.30;;;2.50;;
18780;SDS011;9519;51.890;8.970;2022-11-23T19:18:05;10.27;;;2.77;;
18780;SDS011;9519;51.890;8.970;2022-11-23T19:23:08;11.10;;;2.90;;
18780;SDS011;9519;51.890;8.970;2022-11-23T19:28:10;9.53;;;2.93;;
18780;SDS011;9519;51.890;8.970;2022-11-23T19:33:13;15.50;;;3.20;;
18780;SDS011;9519;51.890;8.970;2022-11-23T19:38:16;11.77;;;3.20;;
18780;SDS011;9519;51.890;8.970;2022-11-23T19:43:18;9.57;;;3.17;;
18780;SDS011;9519;51.890;8.970;2022-11-23T19:48:20;11.30;;;4.30;;
18780;SDS011;9519;51.890;8.970;2022-11-23T19:53:24;10.10;;;4.17;;
18780;SDS011;9519;51.890;8.970;2022-11-23T19:58:29;10.60;;;4.43;;
18780;SDS011;9519;51.890;8.970;2022-11-23T20:03:32;11.97;;;4.07;;
18780;SDS011;9519;51.890;8.970;2022-11-23T20:08:36;11.20;;;3.17;;
18780;SDS011;9519;51.890;8.970;2022-11-23T20:13:39;8.77;;;2.67;;
18780;SDS011;9519;51.890;8.970;2022-11-23T20:18:42;10.70;;;2.70;;
18780;SDS011;9519;51.890;8.970;2022-11-23T20:23:47;17.00;;;5.20;;
18780;SDS011;9519;51.890;8.970;2022-11-23T20:28:50;17.40;;;4.93;;
18780;SDS011;9519;51.890;8.970;2022-11-23T20:33:53;11.50;;;4.87;;
18780;SDS011;9519;51.890;8.970;2022-11-23T20:38:59;10.00;;;3.77;;
18780;SDS011;9519;51.890;8.970;2022-11-23T20:44:05;10.40;;;3.90;;
18780;SDS011;9519;51.890;8.970;2022-11-23T20:49:10;8.53;;;3.47;;
18780;SDS011;9519;51.890;8.970;2022-11-23T20:54:14;8.70;;;3.10;;
18780;SDS011;9519;51.890;8.970;2022-11-23T20:59:16;11.10;;;3.23;;
18780;SDS011;9519;51.890;8.970;2022-11-23T21:10:35;7.00;;;3.10;;
18780;SDS011;9519;51.890;8.970;2022-11-23T21:16:01;9.70;;;2.80;;
18780;SDS011;9519;51.890;8.970;2022-11-23T21:21:06;6.87;;;3.17;;
18780;SDS011;9519;51.890;8.970;2022-11-23T21:26:09;8.60;;;3.13;;
18780;SDS011;9519;51.890;8.970;2022-11-23T21:31:12;8.93;;;3.50;;
18780;SDS011;9519;51.890;8.970;2022-11-23T21:36:14;10.23;;;3.23;;
18780;SDS011;9519;51.890;8.970;2022-11-23T21:41:18;8.10;;;3.40;;
18780;SDS011;9519;51.890;8.970;2022-11-23T21:46:20;7.23;;;2.80;;
18780;SDS011;9519;51.890;8.970;2022-11-23T21:51:24;6.07;;;3.10;;
18780;SDS011;9519;51.890;8.970;2022-11-23T21:56:30;5.53;;;3.00;;
18780;SDS011;9519;51.890;8.970;2022-11-23T22:01:33;6.17;;;2.50;;
18780;SDS011;9519;51.890;8.970;2022-11-23T22:06:37;5.23;;;1.80;;
18780;SDS011;9519;51.890;8.970;2022-11-23T22:11:42;4.40;;;2.03;;
18780;SDS011;9519;51.890;8.970;2022-11-23T22:16:45;5.77;;;2.40;;
18780;SDS011;9519;51.890;8.970;2022-11-23T22:21:49;6.23;;;3.00;;
18780;SDS011;9519;51.890;8.970;2022-11-23T22:26:53;6.73;;;2.60;;
18780;SDS011;9519;51.890;8.970;2022-11-23T22:31:55;6.00;;;2.77;;
18780;SDS011;9519;51.890;8.970;2022-11-23T22:36:57;4.03;;;2.00;;
18780;SDS011;9519;51.890;8.970;2022-11-23T22:42:00;5.53;;;2.50;;
18780;SDS011;9519;51.890;8.970;2022-11-23T22:47:02;4.47;;;2.10;;
18780;SDS011;9519;51.890;8.970;2022-11-23T22:52:04;5.93;;;1.93;;
18780;SDS011;9519;51.890;8.970;2022-11-23T22:57:08;4.67;;;2.63;;
18780;SDS011;9519;51.890;8.970;2022-11-23T23:02:10;4.73;;;2.40;;
18780;SDS011;9519;51.890;8.970;2022-11-23T23:07:12;5.07;;;2.87;;
18780;SDS011;9519;51.890;8.970;2022-11-23T23:12:16;5.40;;;2.83;;
18780;SDS011;9519;51.890;8.970;2022-11-23T23:17:18;7.03;;;3.30;;
18780;SDS011;9519;51.890;8.970;2022-11-23T23:22:20;6.53;;;3.17;;
18780;SDS011;9519;51.890;8.970;2022-11-23T23:27:23;5.80;;;3.00;;
18780;SDS011;9519;51.890;8.970;2022-11-23T23:32:25;8.23;;;2.93;;
18780;SDS011;9519;51.890;8.970;2022-11-23T23:37:27;8.40;;;2.90;;
18780;SDS011;9519;51.890;8.970;2022-11-23T23:42:31;10.10;;;2.70;;
18780;SDS011;9519;51.890;8.970;2022-11-23T23:47:33;10.80;;;2.57;;
18780;SDS011;9519;51.890;8.970;2022-11-23T23:52:36;5.83;;;2.37;;
18780;SDS011;9519;51.890;8.970;2022-11-23T23:57:40;12.60;;;3.00;;
